createdAt,value
2023-01-13T00:01:06.776Z,93.50
2023-01-13T00:03:34.778Z,93.73
2023-01-13T00:06:02.958Z,93.39
2023-01-13T00:08:31.255Z,93.54
2023-01-13T00:10:59.380Z,93.59
2023-01-13T00:13:27.664Z,93.84
2023-01-13T00:16:00.570Z,94.00
2023-01-13T00:18:29.176Z,93.93
2023-01-13T00:21:00.860Z,94.40
2023-01-13T00:23:30.521Z,94.13
2023-01-13T00:25:59.336Z,94.31
2023-01-13T00:28:27.645Z,94.71
2023-01-13T00:30:56.477Z,94.70
2023-01-13T00:33:26.347Z,95.19
2023-01-13T00:35:58.423Z,95.27
2023-01-13T00:38:26.898Z,94.87
2023-01-13T00:40:58.456Z,95.34
2023-01-13T00:43:25.865Z,95.77
2023-01-13T00:45:54.236Z,96.27
2023-01-13T00:48:23.599Z,96.72
2023-01-13T00:50:58.423Z,96.31
2023-01-13T00:53:27.280Z,95.62
2023-01-13T00:56:01.999Z,95.78
2023-01-13T00:58:33.055Z,96.35
2023-01-13T01:01:01.772Z,96.54
2023-01-13T01:03:30.093Z,96.62
2023-01-13T01:06:07.234Z,96.56
2023-01-13T01:08:35.558Z,96.71
2023-01-13T01:11:04.951Z,96.29
2023-01-13T01:13:33.364Z,96.08
2023-01-13T01:16:04.506Z,96.26
2023-01-13T01:18:32.843Z,96.26
2023-01-13T01:21:02.599Z,96.03
2023-01-13T01:23:32.775Z,95.60
2023-01-13T01:26:01.390Z,95.85
2023-01-13T01:28:30.203Z,95.57
2023-01-13T01:30:59.876Z,95.19
2023-01-13T01:33:28.067Z,94.76
2023-01-13T01:35:57.423Z,94.30
2023-01-13T01:38:26.791Z,94.50
2023-01-13T01:40:54.906Z,94.75
2023-01-13T01:43:41.884Z,95.28
2023-01-13T01:46:09.953Z,95.22
2023-01-13T01:48:42.534Z,95.68
2023-01-13T01:51:14.697Z,96.56
2023-01-13T01:53:44.621Z,96.78
2023-01-13T01:56:12.771Z,97.49
2023-01-13T01:58:47.298Z,98.03
2023-01-13T02:01:16.542Z,97.70
2023-01-13T02:03:47.617Z,97.57
2023-01-13T02:06:17.398Z,97.17
2023-01-13T02:08:48.305Z,97.39
2023-01-13T02:11:42.524Z,96.86
2023-01-13T02:14:10.633Z,96.39
2023-01-13T02:16:42.872Z,96.32
2023-01-13T02:19:26.933Z,96.11
2023-01-13T02:25:11.636Z,96.01
2023-01-13T02:27:59.277Z,96.23
2023-01-13T02:30:58.983Z,96.42
2023-01-13T02:33:38.250Z,96.04
2023-01-13T02:36:13.991Z,96.08
2023-01-13T02:38:51.406Z,96.14
2023-01-13T02:41:44.166Z,96.38
2023-01-13T02:44:13.860Z,95.88
2023-01-13T02:46:51.292Z,95.77
2023-01-13T02:49:27.177Z,95.54
2023-01-13T02:52:00.213Z,95.80
2023-01-13T02:54:31.199Z,95.77
2023-01-13T02:57:00.923Z,95.74
2023-01-13T02:59:31.472Z,96.30
2023-01-13T03:02:03.697Z,96.39
2023-01-13T03:04:53.098Z,96.85
2023-01-13T03:07:55.786Z,96.71
2023-01-13T03:10:37.103Z,97.03
2023-01-13T03:13:18.201Z,97.28
2023-01-13T03:15:57.688Z,97.36
2023-01-13T03:18:41.888Z,96.91
2023-01-13T03:21:19.316Z,96.75
2023-01-13T03:23:52.955Z,96.52
2023-01-13T03:26:27.820Z,95.95
2023-01-13T03:28:59.540Z,95.59
2023-01-13T03:31:32.693Z,95.75
2023-01-13T03:34:05.825Z,96.07
2023-01-13T03:36:35.633Z,96.18
2023-01-13T03:39:10.418Z,96.43
2023-01-13T03:41:44.479Z,96.33
2023-01-13T03:44:23.359Z,96.32
2023-01-13T03:47:00.533Z,96.02
2023-01-13T03:49:35.314Z,95.66
2023-01-13T03:52:08.248Z,95.48
2023-01-13T03:54:45.444Z,95.73
2023-01-13T03:57:19.494Z,96.43
2023-01-13T03:59:52.801Z,97.13
2023-01-13T04:02:27.209Z,97.32
2023-01-13T04:05:11.004Z,97.89
2023-01-13T04:07:47.813Z,98.60
2023-01-13T04:10:20.616Z,98.83
2023-01-13T04:13:03.069Z,99.55
2023-01-13T04:15:36.226Z,100.00
2023-01-13T04:18:12.258Z,100.00
2023-01-13T04:20:42.683Z,100.00
2023-01-13T04:23:11.506Z,100.00
2023-01-13T04:25:39.533Z,100.00
2023-01-13T04:28:07.786Z,100.00
2023-01-13T04:30:35.803Z,100.00
2023-01-13T04:33:04.224Z,100.00
2023-01-13T04:35:32.512Z,100.00
2023-01-13T04:38:03.379Z,100.00
2023-01-13T04:40:32.808Z,100.00
2023-01-13T04:43:00.818Z,100.00
2023-01-13T04:45:28.859Z,100.00
2023-01-13T04:47:56.867Z,100.00
2023-01-13T04:50:25.355Z,100.00
2023-01-13T04:52:54.233Z,100.00
2023-01-13T04:55:25.399Z,100.00
2023-01-13T04:57:53.719Z,100.00
2023-01-13T05:00:24.078Z,100.00
2023-01-13T05:02:53.018Z,100.00
2023-01-13T05:05:21.011Z,100.00
2023-01-13T05:07:49.042Z,100.00
2023-01-13T05:10:17.744Z,100.00
2023-01-13T05:13:04.830Z,100.00
2023-01-13T05:15:49.994Z,100.00
2023-01-13T05:18:19.241Z,99.58
2023-01-13T05:20:47.372Z,99.36
2023-01-13T05:23:32.571Z,98.74
2023-01-13T05:26:00.639Z,98.20
2023-01-13T05:28:34.795Z,97.64
2023-01-13T05:31:03.091Z,97.41
2023-01-13T05:33:31.289Z,97.24
2023-01-13T05:36:03.983Z,97.49
2023-01-13T05:38:32.250Z,97.28
2023-01-13T05:41:18.120Z,97.39
2023-01-13T05:43:47.478Z,97.73
2023-01-13T05:46:17.829Z,98.12
2023-01-13T05:48:46.039Z,98.04
2023-01-13T05:51:15.881Z,98.35
2023-01-13T05:53:43.882Z,99.10
2023-01-13T05:56:12.432Z,99.18
2023-01-13T05:58:41.859Z,99.37
2023-01-13T06:01:11.734Z,99.98
2023-01-13T06:03:41.283Z,100.00
2023-01-13T06:06:09.842Z,100.00
2023-01-13T06:08:39.758Z,99.68
2023-01-13T06:11:07.867Z,99.43
2023-01-13T06:13:36.066Z,99.31
2023-01-13T06:16:04.288Z,99.80
2023-01-13T06:18:33.708Z,99.81
2023-01-13T06:21:01.736Z,99.94
2023-01-13T06:23:32.113Z,100.00
2023-01-13T06:26:05.392Z,99.93
2023-01-13T06:28:34.934Z,100.00
2023-01-13T06:31:06.678Z,100.00
2023-01-13T06:33:40.386Z,100.00
2023-01-13T06:36:15.451Z,100.00
2023-01-13T06:38:47.729Z,100.00
2023-01-13T06:41:16.583Z,100.00
2023-01-13T06:43:43.938Z,100.00
2023-01-13T06:46:11.968Z,100.00
2023-01-13T06:48:41.452Z,100.00
2023-01-13T06:51:09.530Z,100.00
2023-01-13T06:53:37.677Z,100.00
2023-01-13T06:56:07.212Z,100.00
2023-01-13T06:58:35.273Z,100.00
2023-01-13T07:01:03.352Z,100.00
2023-01-13T07:03:31.603Z,100.00
2023-01-13T07:06:02.319Z,100.00
2023-01-13T07:08:30.408Z,100.00
2023-01-13T07:10:58.483Z,100.00
2023-01-13T07:13:44.019Z,100.00
2023-01-13T07:16:12.364Z,100.00
2023-01-13T07:18:40.841Z,100.00
2023-01-13T07:21:13.314Z,100.00
2023-01-13T07:23:42.659Z,100.00
2023-01-13T07:26:12.153Z,100.00
2023-01-13T07:28:40.993Z,100.00
2023-01-13T07:31:15.770Z,100.00
2023-01-13T07:33:47.367Z,100.00
2023-01-13T07:36:17.154Z,100.00
2023-01-13T07:38:45.817Z,100.00
2023-01-13T07:41:31.857Z,100.00
2023-01-13T07:44:00.379Z,100.00
2023-01-13T07:46:28.527Z,100.00
2023-01-13T07:48:56.643Z,100.00
2023-01-13T07:51:26.228Z,100.00
2023-01-13T07:53:54.249Z,100.00
2023-01-13T07:56:22.613Z,100.00
2023-01-13T07:58:53.070Z,100.00
2023-01-13T08:01:23.373Z,100.00
2023-01-13T08:03:51.677Z,100.00
2023-01-13T08:06:19.743Z,100.00
2023-01-13T08:08:49.095Z,100.00
2023-01-13T08:11:17.169Z,100.00
2023-01-13T08:13:45.258Z,100.00
2023-01-13T08:16:15.802Z,100.00
2023-01-13T08:18:43.961Z,100.00
2023-01-13T08:21:14.685Z,100.00
2023-01-13T08:23:46.632Z,100.00
2023-01-13T08:26:18.828Z,100.00
2023-01-13T08:28:47.317Z,100.00
2023-01-13T08:31:19.961Z,100.00
2023-01-13T08:33:48.501Z,100.00
2023-01-13T08:36:18.544Z,100.00
2023-01-13T08:38:47.018Z,100.00
2023-01-13T08:41:38.818Z,100.00
2023-01-13T08:44:11.922Z,100.00
2023-01-13T08:46:40.017Z,100.00
2023-01-13T08:49:09.361Z,100.00
2023-01-13T08:51:37.484Z,100.00
2023-01-13T08:54:05.840Z,100.00
2023-01-13T08:56:37.416Z,99.50
2023-01-13T08:59:05.460Z,98.91
2023-01-13T09:01:34.314Z,98.52
2023-01-13T09:04:02.737Z,98.16
2023-01-13T09:06:31.055Z,97.48
2023-01-13T09:09:00.412Z,97.22
2023-01-13T09:11:50.815Z,96.73
2023-01-13T09:14:23.976Z,96.89
2023-01-13T09:16:54.653Z,96.72
2023-01-13T09:19:22.664Z,96.01
2023-01-13T09:21:52.629Z,95.80
2023-01-13T09:24:21.106Z,95.69
2023-01-13T09:26:52.475Z,95.44
2023-01-13T09:29:22.075Z,95.36
2023-01-13T09:31:50.094Z,95.47
2023-01-13T09:34:37.756Z,95.41
2023-01-13T09:37:07.632Z,95.35
2023-01-13T09:39:37.072Z,95.15
2023-01-13T09:42:29.472Z,94.88
2023-01-13T09:45:05.894Z,94.61
2023-01-13T09:47:41.096Z,94.35
2023-01-13T09:50:23.228Z,93.92
2023-01-13T09:52:51.552Z,93.63
2023-01-13T09:55:23.296Z,93.25
2023-01-13T09:57:51.371Z,92.86
2023-01-13T10:00:23.758Z,92.65
2023-01-13T10:03:06.875Z,92.45
2023-01-13T10:05:39.359Z,92.11
2023-01-13T10:08:14.504Z,92.03
2023-01-13T10:10:47.322Z,92.01
2023-01-13T10:13:22.089Z,91.96
2023-01-13T10:16:06.525Z,90.84
2023-01-13T10:18:46.195Z,90.07
2023-01-13T10:21:29.473Z,89.44
2023-01-13T10:24:05.548Z,89.78
2023-01-13T10:26:48.281Z,89.62
2023-01-13T10:29:22.395Z,89.74
2023-01-13T10:31:53.025Z,89.39
2023-01-13T10:34:21.540Z,89.54
2023-01-13T10:37:00.452Z,88.66
2023-01-13T10:39:29.621Z,88.70
2023-01-13T10:42:06.377Z,88.87
2023-01-13T10:44:50.871Z,88.29
2023-01-13T10:47:26.771Z,87.91
2023-01-13T10:50:08.670Z,87.83
2023-01-13T10:52:42.917Z,87.49
2023-01-13T10:55:27.205Z,87.15
2023-01-13T10:57:56.874Z,86.96
2023-01-13T11:00:29.844Z,86.29
2023-01-13T11:03:19.083Z,86.22
2023-01-13T11:05:56.826Z,85.53
2023-01-13T11:08:29.867Z,85.29
2023-01-13T11:11:01.560Z,84.60
2023-01-13T11:13:35.031Z,84.32
2023-01-13T11:16:07.039Z,84.14
2023-01-13T11:18:52.099Z,84.00
2023-01-13T11:21:25.243Z,83.45
2023-01-13T11:24:05.316Z,82.84
2023-01-13T11:26:43.363Z,82.22
2023-01-13T11:29:41.893Z,81.96
2023-01-13T11:32:18.323Z,81.47
2023-01-13T11:34:58.041Z,81.52
2023-01-13T11:38:02.534Z,81.67
2023-01-13T11:40:46.092Z,81.54
2023-01-13T11:43:23.070Z,81.18
2023-01-13T11:45:54.790Z,81.01
2023-01-13T11:48:27.266Z,80.81
2023-01-13T11:51:04.478Z,81.12
2023-01-13T11:53:52.968Z,81.14
2023-01-13T11:56:49.234Z,80.78
2023-01-13T11:59:39.291Z,80.54
2023-01-13T12:02:32.799Z,80.30
2023-01-13T12:05:10.210Z,80.39
2023-01-13T12:07:49.383Z,79.52
2023-01-13T12:10:32.484Z,79.01
2023-01-13T12:13:08.091Z,78.94
2023-01-13T12:16:06.546Z,78.32
2023-01-13T12:18:52.898Z,78.27
2023-01-13T12:21:22.427Z,77.99
2023-01-13T12:24:02.413Z,77.91
2023-01-13T12:26:33.176Z,77.15
2023-01-13T12:29:06.401Z,76.37
2023-01-13T12:31:38.490Z,75.79
2023-01-13T12:34:21.680Z,75.73
2023-01-13T12:36:59.824Z,75.85
2023-01-13T12:39:41.744Z,75.83
2023-01-13T12:42:34.066Z,75.79
2023-01-13T12:45:30.147Z,76.18
2023-01-13T12:47:58.934Z,75.63
2023-01-13T12:50:42.198Z,75.99
2023-01-13T12:53:36.448Z,76.38
2023-01-13T12:56:36.337Z,76.15
2023-01-13T12:59:33.421Z,75.84
2023-01-13T13:02:43.574Z,75.13
2023-01-13T13:05:30.104Z,74.60
2023-01-13T13:08:08.455Z,73.93
2023-01-13T13:10:40.578Z,73.10
2023-01-13T13:13:22.603Z,72.92
2023-01-13T13:15:52.873Z,72.79
2023-01-13T13:18:30.499Z,72.58
2023-01-13T13:21:11.738Z,73.25
2023-01-13T13:23:48.358Z,72.67
2023-01-13T13:26:33.970Z,72.20
2023-01-13T13:29:26.339Z,72.32
2023-01-13T13:32:13.608Z,72.10
2023-01-13T13:34:52.095Z,72.41
2023-01-13T13:38:01.180Z,72.40
2023-01-13T13:40:51.278Z,72.05
2023-01-13T13:43:39.233Z,71.92
2023-01-13T13:46:45.601Z,71.99
2023-01-13T13:49:13.956Z,70.55
2023-01-13T13:51:49.372Z,70.56
2023-01-13T13:54:21.778Z,69.45
2023-01-13T13:56:51.853Z,69.34
2023-01-13T13:59:24.587Z,68.75
2023-01-13T14:02:03.734Z,68.94
2023-01-13T14:04:35.608Z,69.66
2023-01-13T14:07:16.277Z,68.30
2023-01-13T14:09:47.698Z,68.00
2023-01-13T14:12:20.178Z,68.06
2023-01-13T14:14:49.912Z,66.99
2023-01-13T14:17:28.363Z,66.57
2023-01-13T14:20:00.547Z,66.25
2023-01-13T14:22:28.697Z,66.00
2023-01-13T14:24:58.069Z,66.01
2023-01-13T14:27:28.545Z,66.77
2023-01-13T14:29:59.721Z,67.32
2023-01-13T14:32:40.697Z,67.95
2023-01-13T14:35:10.645Z,68.09
2023-01-13T14:37:40.659Z,68.19
2023-01-13T14:40:47.990Z,68.50
2023-01-13T14:43:19.473Z,68.12
2023-01-13T14:45:58.100Z,68.53
2023-01-13T14:48:35.978Z,69.06
2023-01-13T14:51:06.543Z,69.48
2023-01-13T14:53:40.671Z,70.06
2023-01-13T14:56:42.721Z,70.45
2023-01-13T14:59:37.309Z,70.59
2023-01-13T15:02:38.310Z,71.18
2023-01-13T15:05:37.044Z,71.41
2023-01-13T15:08:11.413Z,71.33
2023-01-13T15:10:50.085Z,71.74
2023-01-13T15:13:27.630Z,71.62
2023-01-13T15:15:58.360Z,71.88
2023-01-13T15:18:26.627Z,71.68
2023-01-13T15:20:56.403Z,72.02
2023-01-13T15:23:24.573Z,71.75
2023-01-13T15:25:52.768Z,71.72
2023-01-13T15:28:23.405Z,71.62
2023-01-13T15:30:53.592Z,71.92
2023-01-13T15:33:21.987Z,71.76
2023-01-13T15:35:54.596Z,71.98
2023-01-13T15:38:25.538Z,72.58
2023-01-13T15:40:53.922Z,73.13
2023-01-13T15:43:40.661Z,73.77
2023-01-13T15:46:34.092Z,74.47
2023-01-13T15:49:08.820Z,74.72
2023-01-13T15:51:38.960Z,74.93
2023-01-13T15:54:10.071Z,75.14
2023-01-13T15:56:39.415Z,75.34
2023-01-13T15:59:16.939Z,75.24
2023-01-13T16:01:45.799Z,75.28
2023-01-13T16:04:14.048Z,75.46
2023-01-13T16:06:42.902Z,75.61
2023-01-13T16:09:17.402Z,75.86
2023-01-13T16:11:46.014Z,76.21
2023-01-13T16:14:14.096Z,76.61
2023-01-13T16:16:42.265Z,76.69
2023-01-13T16:19:13.396Z,77.25
2023-01-13T16:21:41.598Z,77.52
2023-01-13T16:24:09.703Z,78.05
2023-01-13T16:26:39.388Z,78.26
2023-01-13T16:29:08.172Z,78.57
2023-01-13T16:31:36.662Z,78.76
2023-01-13T16:34:05.882Z,79.12
2023-01-13T16:36:37.044Z,79.38
2023-01-13T16:39:06.760Z,79.63
2023-01-13T16:41:37.314Z,79.76
2023-01-13T16:44:08.573Z,79.76
2023-01-13T16:46:36.762Z,79.79
2023-01-13T16:49:07.072Z,79.75
2023-01-13T16:51:35.220Z,79.71
2023-01-13T16:54:03.279Z,79.59
2023-01-13T16:56:33.011Z,79.78
2023-01-13T16:59:08.717Z,79.75
2023-01-13T17:01:39.235Z,79.88
2023-01-13T17:04:07.808Z,80.02
2023-01-13T17:06:40.672Z,80.44
2023-01-13T17:09:15.587Z,80.37
2023-01-13T17:11:43.677Z,80.63
2023-01-13T17:14:18.603Z,80.73
2023-01-13T17:16:47.790Z,80.63
2023-01-13T17:19:19.276Z,80.73
2023-01-13T17:21:47.578Z,80.67
2023-01-13T17:24:15.995Z,80.61
2023-01-13T17:26:47.633Z,80.49
2023-01-13T17:29:19.450Z,80.63
2023-01-13T17:31:47.914Z,80.77
2023-01-13T17:34:16.104Z,80.72
2023-01-13T17:36:44.316Z,80.86
2023-01-13T17:39:17.281Z,80.85
2023-01-13T17:41:45.325Z,80.80
2023-01-13T17:44:16.411Z,80.99
2023-01-13T17:46:44.661Z,80.99
2023-01-13T17:49:13.919Z,80.87
2023-01-13T17:51:42.178Z,80.52
2023-01-13T17:54:12.618Z,80.55
2023-01-13T17:56:40.803Z,80.30
2023-01-13T17:59:10.484Z,80.25
2023-01-13T18:01:40.626Z,80.05
2023-01-13T18:04:10.613Z,79.88
2023-01-13T18:06:38.958Z,79.78
2023-01-13T18:09:06.980Z,79.91
2023-01-13T18:11:35.043Z,79.68
2023-01-13T18:14:03.116Z,79.17
2023-01-13T18:16:33.639Z,79.34
2023-01-13T18:19:20.307Z,79.07
2023-01-13T18:22:06.773Z,78.76
2023-01-13T18:24:52.344Z,78.71
2023-01-13T18:27:23.968Z,78.46
2023-01-13T18:29:54.114Z,78.70
2023-01-13T18:32:22.392Z,78.69
2023-01-13T18:35:01.586Z,78.56
2023-01-13T18:37:35.977Z,79.14
2023-01-13T18:40:05.135Z,78.92
2023-01-13T18:42:52.573Z,79.19
2023-01-13T18:45:21.761Z,79.54
2023-01-13T18:47:51.115Z,79.29
2023-01-13T18:50:23.356Z,79.47
2023-01-13T18:52:54.128Z,79.46
2023-01-13T18:55:22.318Z,79.42
2023-01-13T18:57:50.893Z,79.77
2023-01-13T19:00:20.959Z,79.89
2023-01-13T19:02:50.801Z,80.00
2023-01-13T19:05:20.482Z,80.21
2023-01-13T19:07:51.072Z,80.54
2023-01-13T19:10:19.809Z,80.88
2023-01-13T19:12:47.850Z,81.15
2023-01-13T19:15:16.116Z,81.41
2023-01-13T19:17:45.141Z,81.77
2023-01-13T19:20:13.778Z,82.28
2023-01-13T19:22:43.429Z,82.64
2023-01-13T19:25:11.482Z,83.37
2023-01-13T19:27:39.950Z,83.79
2023-01-13T19:30:09.511Z,84.42
2023-01-13T19:32:37.557Z,85.23
2023-01-13T19:35:07.388Z,86.12
2023-01-13T19:37:37.035Z,86.70
2023-01-13T19:40:09.459Z,87.39
2023-01-13T19:42:55.192Z,87.84
2023-01-13T19:45:30.825Z,88.24
2023-01-13T19:48:01.907Z,88.71
2023-01-13T19:50:30.370Z,89.52
2023-01-13T19:52:58.449Z,89.80
2023-01-13T19:55:28.253Z,90.28
2023-01-13T19:57:56.538Z,90.66
2023-01-13T20:00:24.692Z,91.06
2023-01-13T20:02:53.465Z,91.34
2023-01-13T20:05:25.784Z,91.77
2023-01-13T20:07:54.411Z,91.96
2023-01-13T20:10:24.349Z,92.50
2023-01-13T20:12:53.838Z,93.23
2023-01-13T20:15:21.916Z,93.97
2023-01-13T20:17:49.931Z,94.34
2023-01-13T20:20:20.591Z,94.67
2023-01-13T20:22:49.758Z,94.98
2023-01-13T20:25:18.812Z,95.32
2023-01-13T20:27:48.106Z,95.37
2023-01-13T20:30:18.805Z,95.70
2023-01-13T20:32:46.906Z,95.87
2023-01-13T20:35:15.726Z,96.18
2023-01-13T20:37:45.648Z,96.41
2023-01-13T20:40:17.939Z,96.81
2023-01-13T20:42:45.394Z,97.28
2023-01-13T20:45:17.296Z,97.77
2023-01-13T20:47:47.287Z,98.60
2023-01-13T20:50:15.875Z,98.56
2023-01-13T20:52:44.395Z,98.80
2023-01-13T20:55:14.434Z,99.01
2023-01-13T20:57:43.494Z,99.62
2023-01-13T21:00:12.690Z,100.00
2023-01-13T21:02:44.562Z,100.00
2023-01-13T21:05:14.939Z,100.00
2023-01-13T21:07:43.079Z,100.00
2023-01-13T21:10:12.547Z,100.00
2023-01-13T21:12:58.194Z,100.00
2023-01-13T21:15:27.523Z,100.00
2023-01-13T21:18:13.287Z,100.00
2023-01-13T21:20:42.819Z,100.00
2023-01-13T21:23:14.105Z,100.00
2023-01-13T21:25:44.179Z,100.00
2023-01-13T21:28:13.602Z,100.00
2023-01-13T21:30:45.994Z,100.00
2023-01-13T21:33:17.712Z,100.00
2023-01-13T21:35:47.216Z,100.00
2023-01-13T21:38:15.412Z,100.00
2023-01-13T21:40:43.466Z,100.00
2023-01-13T21:43:30.854Z,100.00
2023-01-13T21:46:16.270Z,100.00
2023-01-13T21:48:47.561Z,100.00
2023-01-13T21:51:21.355Z,100.00
2023-01-13T21:53:49.391Z,100.00
2023-01-13T21:56:18.246Z,100.00
2023-01-13T21:58:50.562Z,100.00
2023-01-13T22:01:23.365Z,100.00
2023-01-13T22:04:09.025Z,100.00
2023-01-13T22:06:40.357Z,100.00
2023-01-13T22:09:08.611Z,100.00
2023-01-13T22:11:36.664Z,100.00
2023-01-13T22:14:09.262Z,100.00
2023-01-13T22:16:39.922Z,100.00
2023-01-13T22:19:09.945Z,100.00
2023-01-13T22:21:39.980Z,100.00
2023-01-13T22:24:08.778Z,100.00
2023-01-13T22:26:36.891Z,100.00
2023-01-13T22:29:05.128Z,100.00
2023-01-13T22:31:33.300Z,100.00
2023-01-13T22:34:01.485Z,100.00
2023-01-13T22:36:29.832Z,100.00
2023-01-13T22:39:00.695Z,100.00
2023-01-13T22:41:28.929Z,100.00
2023-01-13T22:43:57.390Z,100.00
2023-01-13T22:46:25.464Z,100.00
2023-01-13T22:48:55.754Z,100.00
2023-01-13T22:51:24.407Z,100.00
2023-01-13T22:53:52.448Z,100.00
2023-01-13T22:56:23.779Z,100.00
2023-01-13T22:58:55.119Z,100.00
2023-01-13T23:01:32.280Z,100.00
2023-01-13T23:04:01.202Z,100.00
2023-01-13T23:06:31.559Z,100.00
2023-01-13T23:09:00.431Z,100.00
2023-01-13T23:11:31.215Z,100.00
2023-01-13T23:14:00.923Z,100.00
2023-01-13T23:16:30.701Z,100.00
2023-01-13T23:18:59.169Z,100.00
2023-01-13T23:21:28.958Z,100.00
2023-01-13T23:23:58.774Z,100.00
2023-01-13T23:26:27.445Z,100.00
2023-01-13T23:29:00.731Z,100.00
2023-01-13T23:31:29.063Z,100.00
2023-01-13T23:33:58.584Z,100.00
2023-01-13T23:36:28.530Z,100.00
2023-01-13T23:38:58.293Z,100.00
2023-01-13T23:41:27.704Z,100.00
2023-01-13T23:43:57.278Z,100.00
2023-01-13T23:46:27.604Z,100.00
2023-01-13T23:48:56.304Z,100.00
2023-01-13T23:51:26.226Z,100.00
2023-01-13T23:53:55.064Z,100.00
2023-01-13T23:56:26.788Z,100.00
2023-01-13T23:58:55.560Z,100.00
